Time;durP1;ratioP1;P1;durP2;ratioP2;P2;SDS_P1;SDS_P2;PMS_P1;PMS_P2;Temp;Humidity;BMP_temperature;BMP_pressure;BME280_temperature;BME280_humidity;BME280_pressure;Samples;Min_cycle;Max_cycle;Signal;HPM_P1;HPM_P2
2024/03/21 00:00:16;;;;;;;6.10;2.00;;;11.00;60.40;;;6.63;100.00;95829.66;4970816;28;20072;-50
2024/03/21 00:02:46;;;;;;;3.42;1.60;;;11.00;60.60;;;6.70;100.00;95836.41;4970866;28;20111;-48
2024/03/21 00:05:14;;;;;;;2.17;1.70;;;11.00;60.70;;;6.76;100.00;95831.22;4969994;28;20034;-48
2024/03/21 00:07:45;;;;;;;1.98;1.60;;;11.10;60.80;;;6.79;100.00;95838.72;4970646;28;20037;-50
2024/03/21 00:10:13;;;;;;;6.90;1.70;;;11.20;60.90;;;6.89;100.00;95844.19;4965928;28;20034;-51
2024/03/21 00:12:40;;;;;;;2.35;1.50;;;11.20;60.90;;;7.02;100.00;95843.13;4970723;28;20042;-54
2024/03/21 00:15:08;;;;;;;3.75;2.10;;;11.30;60.90;;;7.09;100.00;95844.63;4969252;28;20358;-53
2024/03/21 00:17:35;;;;;;;3.05;1.70;;;11.40;60.90;;;7.16;100.00;95847.91;4970382;28;20508;-51
2024/03/21 00:20:10;;;;;;;2.67;1.50;;;11.40;60.80;;;7.24;100.00;95841.47;4970457;28;20033;-51
2024/03/21 00:22:41;;;;;;;2.85;1.90;;;11.50;60.70;;;7.29;100.00;95848.69;4969083;28;20015;-50
2024/03/21 00:25:08;;;;;;;2.80;1.85;;;11.60;60.70;;;7.39;100.00;95847.00;4969509;28;20030;-49
2024/03/21 00:27:37;;;;;;;2.47;1.73;;;11.60;60.50;;;7.47;100.00;95847.69;4970642;28;20022;-57
2024/03/21 00:30:07;;;;;;;3.67;2.08;;;11.70;60.50;;;7.46;100.00;95844.25;4969875;28;20490;-48
2024/03/21 00:32:34;;;;;;;2.88;1.50;;;11.70;60.30;;;7.48;100.00;95852.75;4969628;28;20045;-53
2024/03/21 00:35:00;;;;;;;3.00;1.50;;;11.70;60.20;;;7.52;100.00;95845.94;4969624;28;20033;-50
2024/03/21 00:37:28;;;;;;;4.68;1.52;;;11.80;60.10;;;7.50;100.00;95844.56;4970839;28;20085;-53
2024/03/21 00:39:54;;;;;;;3.67;1.75;;;11.80;60.10;;;7.50;100.00;95849.88;4968224;28;20385;-50
2024/03/21 00:42:22;;;;;;;2.10;1.60;;;11.80;60.00;;;7.49;100.00;95848.22;4970611;28;20030;-53
2024/03/21 00:44:48;;;;;;;2.58;1.60;;;11.80;59.90;;;7.38;100.00;95837.47;4972017;28;20058;-48
2024/03/21 00:47:14;;;;;;;1.90;1.40;;;11.80;59.80;;;7.33;100.00;95832.09;4968327;28;20033;-51
2024/03/21 00:49:40;;;;;;;2.58;1.40;;;11.80;59.80;;;7.26;100.00;95834.06;4969554;28;20564;-49
2024/03/21 00:52:06;;;;;;;2.60;1.90;;;11.80;59.80;;;7.28;100.00;95841.78;4969321;28;20026;-55
2024/03/21 00:54:33;;;;;;;3.45;1.58;;;11.70;59.80;;;7.25;100.00;95839.59;4970641;28;20029;-49
2024/03/21 00:56:59;;;;;;;5.50;1.70;;;11.70;59.80;;;7.19;100.00;95846.66;4969170;28;20022;-50
2024/03/21 00:59:25;;;;;;;2.65;1.50;;;11.70;59.80;;;7.13;100.00;95840.44;4965086;28;20053;-48
2024/03/21 01:01:52;;;;;;;3.17;1.70;;;11.60;59.80;;;7.11;100.00;95849.66;4982646;28;20060;-49
2024/03/21 01:04:18;;;;;;;1.75;1.60;;;11.60;59.80;;;7.06;100.00;95845.09;4969904;28;20501;-51
2024/03/21 01:06:45;;;;;;;3.78;1.60;;;11.60;59.90;;;7.03;100.00;95834.97;4970116;28;20119;-50
2024/03/21 01:09:11;;;;;;;2.03;1.58;;;11.60;59.90;;;7.00;100.00;95839.94;4970622;28;20505;-51
2024/03/21 01:11:39;;;;;;;3.40;2.17;;;11.50;59.90;;;6.97;100.00;95841.19;4980486;23;20061;-50
2024/03/21 01:14:05;;;;;;;3.65;1.83;;;11.50;60.00;;;6.95;100.00;95838.75;4973584;28;20233;-52
2024/03/21 01:16:32;;;;;;;2.65;1.67;;;11.50;59.90;;;6.94;100.00;95844.31;4968514;28;20033;-52
2024/03/21 01:18:58;;;;;;;2.85;1.75;;;11.40;59.90;;;6.85;100.00;95835.13;4968541;28;20124;-52
2024/03/21 01:21:24;;;;;;;2.08;1.70;;;11.40;59.90;;;6.84;100.00;95842.28;4972158;28;20045;-49
2024/03/21 01:23:49;;;;;;;3.15;1.90;;;11.40;59.90;;;6.78;100.00;95837.09;4953640;28;20034;-53
2024/03/21 01:26:15;;;;;;;1.98;1.52;;;11.30;59.90;;;6.76;100.00;95842.63;4954771;28;20050;-48
2024/03/21 01:28:41;;;;;;;5.45;1.65;;;11.30;60.00;;;6.68;100.00;95845.66;4953285;28;20033;-49
2024/03/21 01:31:14;;;;;;;1.90;1.60;;;11.30;60.00;;;6.65;100.00;95846.91;4953974;28;20030;-53
2024/03/21 01:33:44;;;;;;;1.73;1.60;;;11.20;60.00;;;6.66;100.00;95851.16;4953587;28;20023;-52
2024/03/21 01:36:11;;;;;;;3.13;1.77;;;11.20;60.10;;;6.71;100.00;95847.84;4954449;28;20030;-49
2024/03/21 01:38:40;;;;;;;2.28;1.40;;;11.20;60.10;;;6.66;100.00;95850.38;4953115;28;20077;-55
2024/03/21 01:41:06;;;;;;;2.13;1.60;;;11.20;60.20;;;6.67;100.00;95849.31;4953446;28;20054;-50
2024/03/21 01:43:37;;;;;;;1.88;1.40;;;11.20;60.10;;;6.63;100.00;95846.34;4956186;28;20034;-48
2024/03/21 01:46:20;;;;;;;2.40;1.58;;;11.20;60.20;;;6.59;100.00;95845.19;4954415;28;20089;-53
2024/03/21 01:48:53;;;;;;;3.90;1.70;;;11.20;60.40;;;6.55;100.00;95844.06;4954035;28;20045;-57
2024/03/21 01:51:26;;;;;;;4.45;1.45;;;11.20;60.40;;;6.52;100.00;95843.69;4952502;28;20023;-49
2024/03/21 01:53:54;;;;;;;2.22;1.75;;;11.20;60.50;;;6.58;100.00;95848.88;4951219;28;20026;-48
2024/03/21 01:56:22;;;;;;;1.85;1.55;;;11.20;60.50;;;6.61;100.00;95845.78;4954003;28;20030;-51
2024/03/21 01:58:47;;;;;;;2.83;1.60;;;11.20;60.60;;;6.64;100.00;95853.25;4952865;28;20050;-48
2024/03/21 02:01:29;;;;;;;1.63;1.45;;;11.20;60.60;;;6.65;100.00;95854.06;4953622;28;20393;-49
2024/03/21 02:03:59;;;;;;;2.60;1.30;;;11.20;60.80;;;6.70;100.00;95848.84;4951963;28;20034;-48
2024/03/21 02:06:28;;;;;;;1.83;1.55;;;11.30;60.80;;;6.73;100.00;95854.47;4953783;28;20470;-47
2024/03/21 02:08:57;;;;;;;1.92;1.15;;;11.30;60.90;;;6.84;100.00;95849.41;4953619;28;20034;-50
2024/03/21 02:11:23;;;;;;;3.28;1.40;;;11.30;60.90;;;6.93;100.00;95850.66;4952251;28;20420;-52
2024/03/21 02:13:52;;;;;;;3.08;1.50;;;11.40;60.90;;;6.96;100.00;95844.91;4953401;28;20113;-50
2024/03/21 02:16:18;;;;;;;3.35;1.40;;;11.40;60.90;;;7.02;100.00;95849.25;4953153;28;20504;-48
2024/03/21 02:18:44;;;;;;;1.77;1.50;;;11.50;60.90;;;7.06;100.00;95841.63;4953515;28;20042;-56
2024/03/21 02:23:55;;;;;;;1.58;1.25;;;11.60;61.00;;;7.11;100.00;95839.06;4952664;28;20537;-49
2024/03/21 02:26:26;;;;;;;2.28;1.48;;;11.60;61.00;;;7.16;100.00;95831.22;4953528;28;20474;-49
2024/03/21 02:28:53;;;;;;;1.52;1.40;;;11.60;61.00;;;7.19;100.00;95849.28;4952584;28;20031;-48
2024/03/21 02:31:23;;;;;;;1.55;1.13;;;11.70;61.00;;;7.23;100.00;95844.31;4952926;28;20042;-50
2024/03/21 02:33:50;;;;;;;2.75;1.30;;;11.70;61.10;;;7.29;100.00;95844.19;4952215;28;20300;-49
2024/03/21 02:36:17;;;;;;;1.38;1.25;;;11.80;61.00;;;7.38;100.00;95855.22;4953581;28;20491;-53
2024/03/21 02:38:43;;;;;;;2.92;1.42;;;11.80;61.00;;;7.44;100.00;95845.50;4953500;28;20509;-49
2024/03/21 02:41:09;;;;;;;2.08;1.60;;;11.90;61.00;;;7.48;100.00;95844.78;4951761;28;20034;-52
2024/03/21 02:43:35;;;;;;;1.75;1.50;;;12.00;60.90;;;7.57;100.00;95858.47;4957243;28;20034;-51
2024/03/21 02:46:00;;;;;;;2.83;1.20;;;12.00;60.90;;;7.68;100.00;95859.44;4952087;28;20026;-49
2024/03/21 02:48:29;;;;;;;2.10;1.33;;;12.10;60.90;;;7.75;100.00;95857.44;4950317;28;20026;-49
2024/03/21 02:50:55;;;;;;;3.08;1.45;;;12.10;60.80;;;7.79;100.00;95858.56;4950320;28;20397;-55
2024/03/21 02:53:21;;;;;;;1.63;1.10;;;12.20;60.70;;;7.84;100.00;95856.03;4952318;28;20030;-54
2024/03/21 02:55:47;;;;;;;2.53;1.27;;;12.30;60.60;;;7.90;100.00;95857.72;4952682;28;20062;-50
2024/03/21 02:58:13;;;;;;;3.03;1.02;;;12.30;60.50;;;8.04;100.00;95861.63;4952007;28;20022;-47
2024/03/21 03:00:39;;;;;;;3.20;1.48;;;12.40;60.40;;;8.11;100.00;95862.28;4952462;28;20102;-47
2024/03/21 03:03:07;;;;;;;1.98;1.35;;;12.40;60.30;;;8.16;100.00;95869.53;4952378;28;20121;-53
2024/03/21 03:05:42;;;;;;;4.90;1.30;;;12.50;60.30;;;8.19;100.00;95869.03;4950373;28;20480;-48
2024/03/21 03:08:08;;;;;;;1.77;1.30;;;12.60;60.30;;;8.19;100.00;95866.38;4952696;28;20042;-53
2024/03/21 03:10:36;;;;;;;1.98;1.30;;;12.60;60.90;;;8.18;100.00;95866.59;4951094;28;20026;-47
2024/03/21 03:13:03;;;;;;;1.70;1.33;;;12.60;60.00;;;8.15;100.00;95867.91;4951709;28;20081;-54
2024/03/21 03:15:29;;;;;;;2.50;1.25;;;12.60;59.90;;;8.13;100.00;95867.34;4952266;28;20022;-49
2024/03/21 03:17:55;;;;;;;2.03;1.48;;;12.70;59.80;;;8.17;100.00;95875.63;4952065;28;20026;-47
2024/03/21 03:20:21;;;;;;;2.22;1.20;;;12.70;59.80;;;8.18;100.00;95879.88;4952419;28;20034;-48
2024/03/21 03:22:47;;;;;;;1.13;1.02;;;12.70;59.80;;;8.16;100.00;95880.13;4951260;28;20130;-47
2024/03/21 03:25:13;;;;;;;2.80;1.30;;;12.70;59.70;;;8.12;100.00;95892.28;4952388;28;20459;-47
2024/03/21 03:27:38;;;;;;;2.15;1.10;;;12.70;59.70;;;8.09;100.00;95896.22;4951377;28;20022;-49
2024/03/21 03:30:06;;;;;;;1.75;1.20;;;12.70;59.70;;;8.11;100.00;95888.81;4952169;28;20045;-49
2024/03/21 03:32:36;;;;;;;1.50;1.33;;;12.70;59.70;;;8.06;100.00;95890.59;4951750;28;20081;-49
2024/03/21 03:37:46;;;;;;;1.40;1.00;;;12.70;59.70;;;8.07;100.00;95900.94;4952021;28;20033;-51
2024/03/21 03:40:14;;;;;;;1.52;1.20;;;12.60;59.70;;;8.06;100.00;95901.22;4951362;28;20030;-49
2024/03/21 03:42:39;;;;;;;2.05;1.30;;;12.60;59.80;;;8.06;100.00;95902.00;4951966;28;20043;-47
2024/03/21 03:45:06;;;;;;;1.80;1.10;;;12.60;59.80;;;8.04;100.00;95893.47;4952237;28;20390;-47
2024/03/21 03:47:32;;;;;;;1.52;1.20;;;12.60;59.80;;;8.01;100.00;95899.25;4951067;28;20492;-51
2024/03/21 03:49:59;;;;;;;2.65;1.23;;;12.60;59.80;;;8.01;100.00;95904.56;4951821;28;20035;-48
2024/03/21 03:52:25;;;;;;;2.22;1.20;;;12.60;59.90;;;8.04;100.00;95905.94;4950470;28;20049;-49
2024/03/21 03:54:50;;;;;;;1.90;1.35;;;12.60;59.90;;;8.02;100.00;95902.72;4951694;28;20019;-48
2024/03/21 03:57:16;;;;;;;2.47;1.20;;;12.60;59.90;;;7.97;100.00;95894.69;4951713;28;20038;-53
2024/03/21 03:59:42;;;;;;;1.67;1.02;;;12.60;59.90;;;7.95;100.00;95921.44;4951135;28;20019;-52
2024/03/21 04:02:08;;;;;;;1.45;1.20;;;12.60;59.90;;;7.98;100.00;95931.56;4951178;28;20500;-49
2024/03/21 04:04:34;;;;;;;3.95;1.27;;;12.60;59.90;;;8.00;100.00;95926.03;4951108;28;20034;-49
2024/03/21 04:06:59;;;;;;;3.55;1.30;;;12.60;59.90;;;8.00;100.00;95926.84;4951400;28;20560;-49
2024/03/21 04:09:25;;;;;;;0.93;0.85;;;12.60;59.90;;;8.04;100.00;95920.00;4951719;28;20157;-52
2024/03/21 04:11:51;;;;;;;2.05;1.30;;;12.60;59.80;;;8.08;100.00;95934.41;4949562;28;20054;-50
2024/03/21 04:14:16;;;;;;;2.95;1.20;;;12.60;59.80;;;8.06;100.00;95925.88;4951720;28;20026;-50
2024/03/21 04:16:43;;;;;;;1.52;1.02;;;12.70;59.80;;;8.10;100.00;95934.97;4950350;28;20485;-48
2024/03/21 04:19:08;;;;;;;1.77;1.38;;;12.70;59.70;;;8.17;100.00;95939.31;4951651;28;20023;-50
2024/03/21 04:21:34;;;;;;;1.95;1.13;;;12.70;59.70;;;8.21;100.00;95943.91;4950788;28;20038;-54
2024/03/21 04:24:00;;;;;;;4.78;1.33;;;12.70;59.70;;;8.27;100.00;95942.94;4951132;28;20031;-48
2024/03/21 04:26:25;;;;;;;1.42;1.27;;;12.80;59.70;;;8.30;100.00;95941.66;4951341;28;20043;-49
2024/03/21 04:28:51;;;;;;;2.33;1.08;;;12.80;59.80;;;8.26;100.00;95951.94;4950752;28;20034;-49
2024/03/21 04:31:17;;;;;;;1.45;1.00;;;12.80;59.80;;;8.25;100.00;95942.38;4950986;28;20129;-48
2024/03/21 04:33:43;;;;;;;2.35;1.30;;;12.80;59.90;;;8.31;100.00;95945.94;4951173;28;20425;-49
2024/03/21 04:36:09;;;;;;;4.78;1.67;;;12.90;60.00;;;8.31;100.00;95951.22;4951088;28;20056;-49
2024/03/21 04:38:35;;;;;;;3.17;1.60;;;12.90;60.10;;;8.32;100.00;95948.31;4951333;28;20018;-53
2024/03/21 04:41:01;;;;;;;4.03;1.40;;;12.90;60.10;;;8.29;100.00;95942.69;4950102;28;20049;-48
2024/03/21 04:43:26;;;;;;;1.77;1.33;;;12.90;60.10;;;8.27;100.00;95942.13;4951578;28;20053;-47
2024/03/21 04:45:52;;;;;;;1.63;1.20;;;12.80;60.10;;;8.27;100.00;95950.91;4949823;28;20113;-51
2024/03/21 04:48:18;;;;;;;1.20;1.10;;;12.80;60.20;;;8.25;100.00;95942.38;4951220;28;20026;-47
2024/03/21 04:50:44;;;;;;;3.17;1.23;;;12.80;60.30;;;8.19;100.00;95948.66;4949321;28;20050;-48
2024/03/21 04:53:10;;;;;;;2.75;1.40;;;12.80;60.50;;;8.25;100.00;95946.88;4950489;28;20505;-50
2024/03/21 04:55:38;;;;;;;5.18;1.50;;;12.80;60.60;;;8.23;100.00;95957.72;4952176;28;20400;-50
2024/03/21 04:58:04;;;;;;;3.08;1.40;;;12.80;60.80;;;8.23;100.00;95959.59;4950374;28;20347;-48
2024/03/21 05:00:30;;;;;;;3.67;1.33;;;12.80;60.90;;;8.19;100.00;95955.81;4952103;29;20038;-47
2024/03/21 05:02:56;;;;;;;2.40;1.58;;;12.70;61.00;;;8.18;100.00;95965.63;4951880;28;20100;-47
2024/03/21 05:05:21;;;;;;;3.88;1.67;;;12.70;61.20;;;8.17;100.00;95965.84;4950990;28;20029;-51
2024/03/21 05:07:47;;;;;;;2.80;1.50;;;12.70;61.40;;;8.06;100.00;95971.00;4951302;29;20543;-49
2024/03/21 05:10:13;;;;;;;2.53;1.67;;;12.60;61.60;;;8.09;100.00;95973.16;4952964;28;20037;-47
2024/03/21 05:12:39;;;;;;;4.55;1.90;;;12.60;61.70;;;7.99;100.00;95974.81;4949933;28;20197;-48
2024/03/21 05:15:05;;;;;;;3.17;2.00;;;12.60;62.10;;;8.07;100.00;95985.84;4955244;28;20117;-47
2024/03/21 05:17:31;;;;;;;4.25;1.95;;;12.60;62.30;;;8.10;100.00;95981.94;4952039;28;20203;-48
2024/03/21 05:19:57;;;;;;;2.97;1.90;;;12.50;62.30;;;8.12;100.00;95990.47;4956304;28;20041;-47
2024/03/21 05:22:23;;;;;;;4.75;2.40;;;12.60;62.60;;;8.09;100.00;95988.28;4953030;28;20054;-52
2024/03/21 05:24:48;;;;;;;3.63;2.33;;;12.60;62.70;;;8.11;100.00;95992.28;4954545;28;20552;-47
2024/03/21 05:27:17;;;;;;;4.18;2.20;;;12.60;62.80;;;8.11;100.00;95992.28;4954879;28;20109;-48
2024/03/21 05:29:43;;;;;;;2.80;2.55;;;12.50;62.90;;;8.09;100.00;95982.97;4950595;28;20612;-48
2024/03/21 05:32:09;;;;;;;3.58;2.78;;;12.60;63.10;;;8.07;100.00;95983.19;4954746;28;20117;-49
2024/03/21 05:34:34;;;;;;;3.17;2.45;;;12.50;63.20;;;8.10;100.00;95987.22;4954921;28;20557;-49
2024/03/21 05:37:00;;;;;;;5.40;2.78;;;12.60;63.50;;;8.10;100.00;96003.94;4955017;28;20362;-48
2024/03/21 05:39:26;;;;;;;8.25;3.50;;;12.50;63.70;;;8.11;100.00;96008.22;4959982;28;20037;-48
2024/03/21 05:41:52;;;;;;;4.72;3.10;;;12.50;63.80;;;8.13;100.00;96002.69;4951101;28;20413;-48
2024/03/21 05:44:18;;;;;;;5.70;3.15;;;12.50;64.00;;;8.13;100.00;95999.22;4957036;28;20030;-48
2024/03/21 05:46:44;;;;;;;4.75;3.70;;;12.50;64.10;;;8.16;100.00;95996.09;4950431;28;20493;-51
2024/03/21 05:49:11;;;;;;;4.63;3.70;;;12.50;64.20;;;8.17;100.00;96001.16;4953833;28;20033;-48
2024/03/21 05:51:38;;;;;;;6.43;4.75;;;12.60;64.40;;;8.19;100.00;96003.56;4950032;28;20026;-53
2024/03/21 05:54:07;;;;;;;6.43;4.43;;;12.60;64.50;;;8.19;100.00;96000.91;4946267;28;20121;-50
2024/03/21 05:56:35;;;;;;;7.80;5.28;;;12.60;64.60;;;8.21;100.00;96015.56;4948655;28;20078;-50
2024/03/21 05:59:02;;;;;;;7.50;5.18;;;12.60;64.90;;;8.23;100.00;96008.16;4953738;28;20030;-48
2024/03/21 06:01:33;;;;;;;7.35;4.80;;;12.60;64.80;;;8.24;100.00;96003.66;4950884;28;20483;-47
2024/03/21 06:04:01;;;;;;;8.38;5.10;;;12.70;65.00;;;8.26;100.00;96012.97;4952523;28;20641;-48
2024/03/21 06:06:28;;;;;;;7.80;5.57;;;12.70;65.10;;;8.30;100.00;96019.44;4952792;28;20050;-48
2024/03/21 06:08:56;;;;;;;9.30;4.80;;;12.70;65.10;;;8.32;100.00;96016.53;4950255;28;20034;-48
2024/03/21 06:11:22;;;;;;;6.93;5.50;;;12.80;65.30;;;8.33;100.00;96026.09;4951703;28;20042;-48
2024/03/21 06:13:49;;;;;;;10.73;5.53;;;12.80;65.30;;;8.34;100.00;96030.38;4953402;28;20038;-47
2024/03/21 06:16:16;;;;;;;8.35;5.28;;;12.90;65.40;;;8.40;100.00;96033.94;4945605;28;20121;-54
2024/03/21 06:18:42;;;;;;;7.82;5.60;;;12.90;65.50;;;8.42;100.00;96032.66;4953363;28;20021;-49
2024/03/21 06:21:07;;;;;;;10.32;5.72;;;12.90;65.50;;;8.47;100.00;96039.94;4951769;28;20030;-49
2024/03/21 06:23:33;;;;;;;8.73;5.85;;;12.90;65.60;;;8.51;100.00;96035.72;4951287;28;20110;-53
2024/03/21 06:25:59;;;;;;;8.82;5.25;;;13.00;65.80;;;8.53;100.00;96039.75;4950255;28;20080;-49
2024/03/21 06:28:25;;;;;;;11.32;5.93;;;13.00;65.90;;;8.57;100.00;96042.75;4951592;28;20027;-50
2024/03/21 06:30:52;;;;;;;10.50;6.30;;;13.00;66.00;;;8.61;100.00;96043.06;4949778;28;20029;-51
2024/03/21 06:33:17;;;;;;;10.15;6.53;;;13.00;66.10;;;8.67;100.00;96056.19;4951043;28;20490;-49
2024/03/21 06:35:43;;;;;;;9.68;5.93;;;13.10;66.20;;;8.68;100.00;96051.66;4951909;28;20026;-52
2024/03/21 06:38:09;;;;;;;6.82;5.32;;;13.10;66.30;;;8.71;100.00;96054.69;4953796;28;20041;-51
2024/03/21 06:40:35;;;;;;;6.80;4.88;;;13.10;66.40;;;8.74;100.00;96056.03;4948193;28;20042;-49
2024/03/21 06:43:00;;;;;;;6.47;5.60;;;13.10;66.40;;;8.77;100.00;96063.50;4953576;28;20109;-49
2024/03/21 06:45:26;;;;;;;8.48;5.50;;;13.20;66.50;;;8.80;100.00;96069.13;4947454;28;20078;-48
2024/03/21 06:47:52;;;;;;;9.02;6.25;;;13.20;66.50;;;8.80;100.00;96066.47;4949712;28;20085;-48
2024/03/21 06:50:19;;;;;;;8.45;5.93;;;13.30;66.70;;;8.82;100.00;96071.56;4953904;28;20022;-49
2024/03/21 06:52:49;;;;;;;7.75;5.72;;;13.30;66.90;;;8.91;100.00;96077.28;4952784;28;20057;-52
2024/03/21 06:55:17;;;;;;;8.65;5.90;;;13.30;66.90;;;8.97;100.00;96071.81;4951145;28;20085;-49
2024/03/21 06:57:49;;;;;;;7.68;5.50;;;13.40;67.00;;;9.06;100.00;96071.38;4951303;28;20057;-47
2024/03/21 07:00:16;;;;;;;8.32;5.55;;;13.40;67.10;;;9.11;100.00;96066.16;4953443;28;20045;-54
2024/03/21 07:02:44;;;;;;;8.68;5.50;;;13.50;67.00;;;9.19;100.00;96071.09;4952149;28;20030;-49
2024/03/21 07:05:16;;;;;;;8.63;5.28;;;13.50;67.00;;;9.25;100.00;96078.88;4951449;28;20089;-49
2024/03/21 07:07:41;;;;;;;9.55;6.13;;;13.60;67.10;;;9.31;100.00;96078.94;4949983;28;20129;-50
2024/03/21 07:10:08;;;;;;;8.85;6.25;;;13.70;67.10;;;9.34;100.00;96081.94;4951208;28;20066;-49
2024/03/21 07:12:35;;;;;;;9.52;5.53;;;13.70;67.10;;;9.38;100.00;96083.06;4971592;23;20046;-49
2024/03/21 07:15:04;;;;;;;9.43;6.20;;;13.70;67.00;;;9.39;100.00;96084.66;4953615;28;20044;-52
2024/03/21 07:17:30;;;;;;;9.65;5.90;;;13.80;67.20;;;9.41;100.00;96073.78;4969996;28;20025;-53
2024/03/21 07:19:55;;;;;;;8.48;6.22;;;13.80;67.00;;;9.43;100.00;96083.13;4971728;28;20018;-49
2024/03/21 07:22:21;;;;;;;8.48;6.75;;;13.80;67.00;;;9.43;100.00;96084.97;4960520;28;20038;-49
2024/03/21 07:24:47;;;;;;;13.32;7.53;;;13.80;67.00;;;9.44;100.00;96083.94;4950142;28;20034;-49
2024/03/21 07:27:13;;;;;;;12.18;6.57;;;13.80;67.00;;;9.41;100.00;96071.94;4951053;28;20101;-49
2024/03/21 07:29:39;;;;;;;13.35;7.20;;;13.80;67.10;;;9.44;100.00;96076.75;4951120;28;20022;-51
2024/03/21 07:32:04;;;;;;;9.80;6.75;;;13.80;67.20;;;9.45;100.00;96082.88;4951017;28;20023;-49
2024/03/21 07:34:32;;;;;;;14.38;7.68;;;13.90;67.20;;;9.45;100.00;96094.31;4955807;28;20144;-50
2024/03/21 07:36:58;;;;;;;12.70;7.28;;;13.90;67.20;;;9.49;100.00;96099.94;4948469;28;20092;-50
2024/03/21 07:39:24;;;;;;;10.85;7.00;;;13.90;67.30;;;9.52;100.00;96099.47;4953322;28;20025;-49
2024/03/21 07:41:50;;;;;;;12.95;7.45;;;13.90;67.40;;;9.57;100.00;96096.06;4946243;28;20397;-51
2024/03/21 07:44:17;;;;;;;13.70;7.78;;;13.90;67.50;;;9.60;100.00;96095.59;4940532;28;20054;-54
2024/03/21 07:46:43;;;;;;;12.25;8.10;;;14.00;67.60;;;9.64;100.00;96104.69;4944621;28;20019;-53
2024/03/21 07:49:09;;;;;;;10.93;7.70;;;14.00;67.70;;;9.66;100.00;96110.56;4952657;28;20058;-53
2024/03/21 07:51:36;;;;;;;13.45;7.88;;;14.10;67.80;;;9.70;100.00;96114.34;4951464;28;20054;-50
2024/03/21 07:54:03;;;;;;;12.05;7.60;;;14.10;67.80;;;9.72;100.00;96122.88;4952671;28;20449;-52
2024/03/21 07:56:29;;;;;;;11.43;7.35;;;14.10;67.80;;;9.74;100.00;96139.38;4952798;28;20022;-54
2024/03/21 07:58:56;;;;;;;12.43;7.72;;;14.20;67.80;;;9.77;100.00;96135.44;4936429;28;20035;-49
2024/03/21 08:01:25;;;;;;;11.95;7.40;;;14.20;67.90;;;9.79;100.00;96144.78;4952104;28;20130;-51
2024/03/21 08:03:52;;;;;;;17.80;12.02;;;14.20;68.00;;;9.79;100.00;96152.78;4949605;28;20043;-49
2024/03/21 08:06:18;;;;;;;10.73;8.15;;;14.30;67.90;;;9.80;100.00;96157.03;4952667;28;20481;-51
2024/03/21 08:08:44;;;;;;;15.02;8.18;;;14.30;67.90;;;9.79;100.00;96166.06;4958282;28;20068;-49
2024/03/21 08:11:12;;;;;;;12.35;8.15;;;14.30;67.90;;;9.75;100.00;96167.63;4950991;28;20454;-49
2024/03/21 08:13:40;;;;;;;13.27;8.25;;;14.30;67.80;;;9.80;100.00;96161.56;4952741;28;20056;-50
2024/03/21 08:16:07;;;;;;;11.02;8.48;;;14.30;68.60;;;9.85;100.00;96166.97;4953067;28;20133;-53
2024/03/21 08:18:33;;;;;;;11.88;7.88;;;14.40;68.00;;;9.91;100.00;96168.63;4953865;28;20042;-51
2024/03/21 08:21:01;;;;;;;12.98;8.02;;;14.40;68.00;;;9.92;100.00;96171.03;4952048;28;20425;-50
2024/03/21 08:23:28;;;;;;;16.30;9.20;;;14.40;68.80;;;9.97;100.00;96170.31;4951021;28;20043;-51
2024/03/21 08:25:53;;;;;;;15.32;8.48;;;14.50;68.10;;;9.98;100.00;96176.44;4952686;28;20025;-50
2024/03/21 08:28:19;;;;;;;15.18;9.20;;;14.50;68.10;;;9.98;100.00;96171.13;4949871;28;20023;-53
2024/03/21 08:30:48;;;;;;;11.98;7.85;;;14.50;68.20;;;10.01;100.00;96167.97;4950205;28;20053;-50
2024/03/21 08:33:17;;;;;;;15.02;8.43;;;14.50;68.20;;;10.02;100.00;96161.59;4942349;28;20038;-49
2024/03/21 08:35:43;;;;;;;11.43;8.27;;;14.50;68.20;;;10.04;100.00;96154.16;4950218;28;20485;-50
2024/03/21 08:38:09;;;;;;;14.02;8.95;;;14.50;68.20;;;10.06;100.00;96139.56;4952852;28;20031;-49
2024/03/21 08:40:36;;;;;;;14.40;9.05;;;14.60;68.20;;;10.12;100.00;96140.41;4954323;28;20057;-53
2024/03/21 08:43:03;;;;;;;17.42;9.30;;;14.70;68.30;;;10.21;100.00;96149.56;4955183;28;20053;-51
2024/03/21 08:45:29;;;;;;;17.42;8.95;;;14.80;68.10;;;10.31;100.00;96162.22;4951443;28;20030;-54
2024/03/21 08:47:57;;;;;;;14.48;8.82;;;15.00;68.00;;;10.41;100.00;96160.50;4950878;28;20034;-50
2024/03/21 08:50:23;;;;;;;13.25;8.88;;;15.20;67.90;;;10.52;100.00;96161.41;4949845;28;20018;-50
2024/03/21 08:52:49;;;;;;;12.82;8.77;;;15.40;67.80;;;10.68;100.00;96164.25;4954018;28;20058;-55
2024/03/21 08:55:15;;;;;;;16.48;9.02;;;15.60;67.60;;;10.81;100.00;96161.19;4948522;28;20069;-54
2024/03/21 08:57:41;;;;;;;15.43;9.20;;;15.80;67.60;;;10.91;100.00;96160.50;4955648;28;20021;-56
2024/03/21 09:00:08;;;;;;;13.38;8.18;;;15.90;67.40;;;11.03;100.00;96155.78;4948383;28;20027;-54
2024/03/21 09:02:34;;;;;;;14.15;9.10;;;16.10;67.40;;;11.13;100.00;96160.44;4933968;29;20054;-55
2024/03/21 09:05:00;;;;;;;16.67;8.55;;;16.20;67.30;;;11.25;100.00;96159.19;4950736;28;20126;-54
2024/03/21 09:07:25;;;;;;;13.73;8.15;;;16.30;67.30;;;11.34;100.00;96159.50;4936031;29;20037;-56
2024/03/21 09:09:51;;;;;;;13.20;7.85;;;16.30;67.00;;;11.41;100.00;96165.47;4948996;28;20038;-52
2024/03/21 09:12:17;;;;;;;13.55;8.10;;;16.50;66.90;;;11.50;100.00;96163.09;4952507;28;20089;-50
2024/03/21 09:14:43;;;;;;;13.32;7.88;;;16.60;66.80;;;11.56;100.00;96167.41;4950857;28;20482;-55
2024/03/21 09:17:09;;;;;;;8.98;6.47;;;16.70;66.60;;;11.76;100.00;96177.44;4958514;28;20033;-53
2024/03/21 09:19:35;;;;;;;9.82;7.13;;;16.90;66.40;;;11.89;100.00;96181.56;4951111;28;20031;-50
2024/03/21 09:22:01;;;;;;;9.13;7.05;;;17.20;66.20;;;11.99;100.00;96166.38;4950736;28;20026;-55
2024/03/21 09:24:30;;;;;;;11.18;6.55;;;17.40;65.90;;;12.39;100.00;96174.84;4952560;28;20047;-51
2024/03/21 09:26:57;;;;;;;7.38;5.53;;;18.00;65.50;;;12.87;100.00;96170.19;4955178;28;20647;-54
2024/03/21 09:29:25;;;;;;;6.78;5.60;;;18.80;64.80;;;13.35;100.00;96173.47;4943249;28;20039;-55
2024/03/21 09:31:51;;;;;;;8.10;5.05;;;19.50;64.30;;;13.63;100.00;96169.44;4954791;28;20022;-56
2024/03/21 09:34:18;;;;;;;7.75;4.50;;;19.90;63.10;;;13.82;100.00;96177.72;4937746;28;20029;-54
2024/03/21 09:36:46;;;;;;;8.98;4.80;;;20.10;62.20;;;13.98;100.00;96175.84;4955067;28;20022;-54
2024/03/21 09:39:13;;;;;;;7.47;4.72;;;20.10;61.60;;;13.98;100.00;96181.19;4954389;28;20038;-55
2024/03/21 09:41:39;;;;;;;6.43;4.75;;;20.10;61.10;;;13.94;100.00;96178.22;4954397;28;20049;-56
2024/03/21 09:44:12;;;;;;;9.82;5.03;;;20.00;60.40;;;13.99;100.00;96180.91;4956594;28;20124;-55
2024/03/21 09:46:39;;;;;;;6.95;4.80;;;20.00;60.30;;;13.89;100.00;96180.94;4932293;28;20030;-53
2024/03/21 09:49:10;;;;;;;7.75;5.50;;;19.80;59.90;;;13.93;100.00;96183.88;4937685;28;20132;-53
2024/03/21 09:51:40;;;;;;;6.72;5.28;;;19.70;59.80;;;13.81;100.00;96184.16;4936772;28;20031;-58
2024/03/21 09:54:11;;;;;;;7.75;4.95;;;19.50;60.20;;;13.68;100.00;96174.81;4956208;28;20038;-53
2024/03/21 09:56:38;;;;;;;6.35;4.80;;;19.30;60.20;;;13.58;100.00;96183.66;4955258;28;20029;-53
2024/03/21 09:59:15;;;;;;;9.00;4.82;;;19.10;60.30;;;13.37;100.00;96196.22;4935992;28;20034;-55
2024/03/21 10:01:41;;;;;;;10.25;5.22;;;18.90;60.50;;;13.22;100.00;96198.03;4953523;28;20022;-56
2024/03/21 10:04:07;;;;;;;7.80;4.65;;;18.70;60.70;;;13.25;100.00;96205.56;4952862;28;20045;-56
2024/03/21 10:06:45;;;;;;;7.85;5.22;;;18.50;61.10;;;13.08;100.00;96201.25;4957069;28;20385;-56
2024/03/21 10:09:12;;;;;;;7.13;5.18;;;18.30;61.50;;;13.04;100.00;96200.19;4954745;28;20033;-57
2024/03/21 10:11:40;;;;;;;8.90;5.25;;;18.30;61.50;;;13.11;100.00;96211.41;4940694;28;20030;-52
2024/03/21 10:14:10;;;;;;;7.43;4.43;;;18.20;61.70;;;13.23;100.00;96211.16;4953343;28;20486;-50
2024/03/21 10:16:36;;;;;;;7.88;4.65;;;18.20;62.00;;;13.17;100.00;96210.34;4936603;28;20056;-57
2024/03/21 10:19:02;;;;;;;8.85;5.03;;;18.10;62.20;;;13.11;100.00;96214.09;4956142;28;20505;-53
2024/03/21 10:21:28;;;;;;;6.65;4.93;;;18.10;62.40;;;13.07;100.00;96214.91;4954027;28;20025;-52